ハリファックス の空港の天気 - METARとTAF

ハリファックス国際空港 ( CYHZ / YHZ ) - カナダ ノバスコシア州ハリファックス
飛行場実況気象(Metar)
観測時間12/04 00:00 AST (12/04 04:00 UTC)
風向・風速南 4m/s
視程10km以上
天気現象
なし
気温1℃
湿度86%
気圧1020.2hPa
METARCYHZ 040400Z 19007KT 15SM SKC 01/M01 A3011 RMK SLP202
過去の天気等 Google飛行場航空写真 Wunderground天気予報

過去48時間のMETAR

飛行場予報(TAF)
発表時間: 12/03 22:41 AST (12/04 02:41 UTC)
予報対象時間: 3日23時 AST ~ 4日20時 AST
風向・風速西南西 3m/s
視程10km以上
なし
3日23時 AST ~ 3日24時 AST に一時的に
全天の8割程度の雲 雲底高度 760m
4日0時 AST から
風向・風速南南西 4m/s
視程10km以上
全天の8割程度の雲 雲底高度 610m
4日0時 AST ~ 4日4時 AST に一時的に
全天の4割程度の雲 雲底高度 610m
4日4時 AST から
風向・風速南 3m/s
視程10km以上
天気現象もや
全天を覆う雲 雲底高度 300m
4日4時 AST ~ 4日8時 AST に一時的に
視程10km以上
天気現象運行に影響にある天気現象が終了
全天の8割程度の雲 雲底高度 760m
4日8時 AST から
風向・風速南南西 4m/s
視程10km以上
少しの雲 雲底高度 610m
全天の8割程度の雲 雲底高度 3050m
4日13時 AST ~ 4日15時 AST に徐々に
風向・風速南西 4m/s 瞬間風速 9m/s
TAF CYHZ 040241Z 0403/0424 24006KT P6SM SKC
TEMPO 0403/0404 BKN025
FM040400 21007KT P6SM BKN020
TEMPO 0404/0408 SCT020
FM040800 19006KT 6SM BR OVC010
TEMPO 0408/0412 P6SM NSW BKN025
FM041200 21008KT P6SM FEW020 BKN100
BECMG 0417/0419 22008G18KT RMK NXT FCST BY 040600Z